sensor_id;sensor_type;location;lat;lon;timestamp;P1;durP1;ratioP1;P2;durP2;ratioP2
44670;SDS011;48397;53.016;-2.260;2023-06-10T00:00:10;23.15;;;11.25;;
44670;SDS011;48397;53.016;-2.260;2023-06-10T00:02:42;21.70;;;10.32;;
44670;SDS011;48397;53.016;-2.260;2023-06-10T00:05:11;19.80;;;11.20;;
44670;SDS011;48397;53.016;-2.260;2023-06-10T00:07:39;18.48;;;10.45;;
44670;SDS011;48397;53.016;-2.260;2023-06-10T00:10:08;22.17;;;10.63;;
44670;SDS011;48397;53.016;-2.260;2023-06-10T00:12:38;22.60;;;11.52;;
44670;SDS011;48397;53.016;-2.260;2023-06-10T00:15:06;22.92;;;11.23;;
44670;SDS011;48397;53.016;-2.260;2023-06-10T00:17:35;23.30;;;11.85;;
44670;SDS011;48397;53.016;-2.260;2023-06-10T00:20:07;27.17;;;11.40;;
44670;SDS011;48397;53.016;-2.260;2023-06-10T00:22:39;21.67;;;10.82;;
44670;SDS011;48397;53.016;-2.260;2023-06-10T00:25:09;22.60;;;11.65;;
44670;SDS011;48397;53.016;-2.260;2023-06-10T00:27:38;29.90;;;11.75;;
44670;SDS011;48397;53.016;-2.260;2023-06-10T00:30:06;25.00;;;11.30;;
44670;SDS011;48397;53.016;-2.260;2023-06-10T00:32:34;27.00;;;12.40;;
44670;SDS011;48397;53.016;-2.260;2023-06-10T00:35:03;28.33;;;13.23;;
44670;SDS011;48397;53.016;-2.260;2023-06-10T00:37:32;25.63;;;12.48;;
44670;SDS011;48397;53.016;-2.260;2023-06-10T00:40:05;23.60;;;12.77;;
44670;SDS011;48397;53.016;-2.260;2023-06-10T00:42:36;25.58;;;12.30;;
44670;SDS011;48397;53.016;-2.260;2023-06-10T00:45:04;25.42;;;12.77;;
44670;SDS011;48397;53.016;-2.260;2023-06-10T00:47:35;25.27;;;12.48;;
44670;SDS011;48397;53.016;-2.260;2023-06-10T00:54:59;23.33;;;12.27;;
44670;SDS011;48397;53.016;-2.260;2023-06-10T00:57:27;29.45;;;13.80;;
44670;SDS011;48397;53.016;-2.260;2023-06-10T00:59:56;25.45;;;13.73;;
44670;SDS011;48397;53.016;-2.260;2023-06-10T01:02:26;32.17;;;13.18;;
44670;SDS011;48397;53.016;-2.260;2023-06-10T01:04:56;30.58;;;14.63;;
44670;SDS011;48397;53.016;-2.260;2023-06-10T01:07:25;29.27;;;14.45;;
44670;SDS011;48397;53.016;-2.260;2023-06-10T01:10:01;27.42;;;14.38;;
44670;SDS011;48397;53.016;-2.260;2023-06-10T01:15:06;24.05;;;13.93;;
44670;SDS011;48397;53.016;-2.260;2023-06-10T01:17:37;29.10;;;15.10;;
44670;SDS011;48397;53.016;-2.260;2023-06-10T01:20:22;32.05;;;14.27;;
44670;SDS011;48397;53.016;-2.260;2023-06-10T01:22:51;28.98;;;15.50;;
44670;SDS011;48397;53.016;-2.260;2023-06-10T01:25:22;32.65;;;15.23;;
44670;SDS011;48397;53.016;-2.260;2023-06-10T01:33:51;31.75;;;15.20;;
44670;SDS011;48397;53.016;-2.260;2023-06-10T01:36:23;31.25;;;14.52;;
44670;SDS011;48397;53.016;-2.260;2023-06-10T01:38:51;33.95;;;15.90;;
44670;SDS011;48397;53.016;-2.260;2023-06-10T01:41:20;31.13;;;16.27;;
44670;SDS011;48397;53.016;-2.260;2023-06-10T01:43:49;30.35;;;14.82;;
44670;SDS011;48397;53.016;-2.260;2023-06-10T01:46:17;30.13;;;15.00;;
44670;SDS011;48397;53.016;-2.260;2023-06-10T01:48:47;29.50;;;15.80;;
44670;SDS011;48397;53.016;-2.260;2023-06-10T01:51:15;34.05;;;14.95;;
44670;SDS011;48397;53.016;-2.260;2023-06-10T01:53:43;34.88;;;15.82;;
44670;SDS011;48397;53.016;-2.260;2023-06-10T01:56:11;31.38;;;17.23;;
44670;SDS011;48397;53.016;-2.260;2023-06-10T01:58:45;29.27;;;14.07;;
44670;SDS011;48397;53.016;-2.260;2023-06-10T02:01:13;32.05;;;15.77;;
44670;SDS011;48397;53.016;-2.260;2023-06-10T02:06:09;28.23;;;14.45;;
44670;SDS011;48397;53.016;-2.260;2023-06-10T02:08:36;37.67;;;16.60;;
44670;SDS011;48397;53.016;-2.260;2023-06-10T02:11:04;33.85;;;16.27;;
44670;SDS011;48397;53.016;-2.260;2023-06-10T02:13:34;38.90;;;17.05;;
44670;SDS011;48397;53.016;-2.260;2023-06-10T02:16:02;35.28;;;16.33;;
44670;SDS011;48397;53.016;-2.260;2023-06-10T02:18:30;32.97;;;16.00;;
44670;SDS011;48397;53.016;-2.260;2023-06-10T02:20:57;35.33;;;16.23;;
44670;SDS011;48397;53.016;-2.260;2023-06-10T02:23:26;35.38;;;16.88;;
44670;SDS011;48397;53.016;-2.260;2023-06-10T02:25:54;32.78;;;16.63;;
44670;SDS011;48397;53.016;-2.260;2023-06-10T02:28:24;29.45;;;15.45;;
44670;SDS011;48397;53.016;-2.260;2023-06-10T02:30:52;30.88;;;15.73;;
44670;SDS011;48397;53.016;-2.260;2023-06-10T02:33:21;29.42;;;15.52;;
44670;SDS011;48397;53.016;-2.260;2023-06-10T02:35:50;36.35;;;16.00;;
44670;SDS011;48397;53.016;-2.260;2023-06-10T02:38:18;36.67;;;16.73;;
44670;SDS011;48397;53.016;-2.260;2023-06-10T02:40:47;32.60;;;16.17;;
44670;SDS011;48397;53.016;-2.260;2023-06-10T02:43:16;35.13;;;16.55;;
44670;SDS011;48397;53.016;-2.260;2023-06-10T02:45:44;35.78;;;16.30;;
44670;SDS011;48397;53.016;-2.260;2023-06-10T02:48:13;34.90;;;16.35;;
44670;SDS011;48397;53.016;-2.260;2023-06-10T02:50:42;33.75;;;16.15;;
44670;SDS011;48397;53.016;-2.260;2023-06-10T02:53:21;27.05;;;14.35;;
44670;SDS011;48397;53.016;-2.260;2023-06-10T02:55:54;29.45;;;16.20;;
44670;SDS011;48397;53.016;-2.260;2023-06-10T02:58:22;32.88;;;16.77;;
44670;SDS011;48397;53.016;-2.260;2023-06-10T03:00:51;33.22;;;17.13;;
44670;SDS011;48397;53.016;-2.260;2023-06-10T03:03:19;33.03;;;17.42;;
44670;SDS011;48397;53.016;-2.260;2023-06-10T03:06:02;33.90;;;16.88;;
44670;SDS011;48397;53.016;-2.260;2023-06-10T03:08:31;28.05;;;14.50;;
44670;SDS011;48397;53.016;-2.260;2023-06-10T03:11:03;34.50;;;16.90;;
44670;SDS011;48397;53.016;-2.260;2023-06-10T03:13:32;41.17;;;16.83;;
44670;SDS011;48397;53.016;-2.260;2023-06-10T03:16:01;35.85;;;17.25;;
44670;SDS011;48397;53.016;-2.260;2023-06-10T03:18:32;32.72;;;16.05;;
44670;SDS011;48397;53.016;-2.260;2023-06-10T03:23:28;31.00;;;15.38;;
44670;SDS011;48397;53.016;-2.260;2023-06-10T03:28:24;29.90;;;15.07;;
44670;SDS011;48397;53.016;-2.260;2023-06-10T03:33:22;32.22;;;15.35;;
44670;SDS011;48397;53.016;-2.260;2023-06-10T03:35:51;35.25;;;16.80;;
44670;SDS011;48397;53.016;-2.260;2023-06-10T03:38:19;38.80;;;17.80;;
44670;SDS011;48397;53.016;-2.260;2023-06-10T03:40:47;35.33;;;16.65;;
44670;SDS011;48397;53.016;-2.260;2023-06-10T03:43:15;39.22;;;17.13;;
44670;SDS011;48397;53.016;-2.260;2023-06-10T03:45:43;38.15;;;16.90;;
44670;SDS011;48397;53.016;-2.260;2023-06-10T03:48:12;33.10;;;16.33;;
44670;SDS011;48397;53.016;-2.260;2023-06-10T03:50:46;32.75;;;16.60;;
44670;SDS011;48397;53.016;-2.260;2023-06-10T03:53:15;32.15;;;15.65;;
44670;SDS011;48397;53.016;-2.260;2023-06-10T03:55:43;35.78;;;17.48;;
44670;SDS011;48397;53.016;-2.260;2023-06-10T03:58:15;35.13;;;16.13;;
44670;SDS011;48397;53.016;-2.260;2023-06-10T04:00:45;37.05;;;17.40;;
44670;SDS011;48397;53.016;-2.260;2023-06-10T04:03:14;36.15;;;16.60;;
44670;SDS011;48397;53.016;-2.260;2023-06-10T04:05:45;33.97;;;16.83;;
44670;SDS011;48397;53.016;-2.260;2023-06-10T04:08:14;34.63;;;17.15;;
44670;SDS011;48397;53.016;-2.260;2023-06-10T04:10:42;33.70;;;16.20;;
44670;SDS011;48397;53.016;-2.260;2023-06-10T04:15:45;31.42;;;16.38;;
44670;SDS011;48397;53.016;-2.260;2023-06-10T04:18:16;32.60;;;15.93;;
44670;SDS011;48397;53.016;-2.260;2023-06-10T04:20:45;33.67;;;15.45;;
44670;SDS011;48397;53.016;-2.260;2023-06-10T04:23:13;32.95;;;15.98;;
44670;SDS011;48397;53.016;-2.260;2023-06-10T04:25:44;33.85;;;16.60;;
44670;SDS011;48397;53.016;-2.260;2023-06-10T04:28:12;33.20;;;15.13;;
44670;SDS011;48397;53.016;-2.260;2023-06-10T04:30:43;29.95;;;15.25;;
44670;SDS011;48397;53.016;-2.260;2023-06-10T04:33:12;28.90;;;14.55;;
44670;SDS011;48397;53.016;-2.260;2023-06-10T04:35:41;32.72;;;16.05;;
44670;SDS011;48397;53.016;-2.260;2023-06-10T04:38:13;34.17;;;15.00;;
44670;SDS011;48397;53.016;-2.260;2023-06-10T04:40:42;29.83;;;15.52;;
44670;SDS011;48397;53.016;-2.260;2023-06-10T04:43:11;30.35;;;15.27;;
44670;SDS011;48397;53.016;-2.260;2023-06-10T04:45:40;32.47;;;15.77;;
44670;SDS011;48397;53.016;-2.260;2023-06-10T04:48:12;33.50;;;15.82;;
44670;SDS011;48397;53.016;-2.260;2023-06-10T04:50:41;31.05;;;13.73;;
44670;SDS011;48397;53.016;-2.260;2023-06-10T04:53:10;34.00;;;15.13;;
44670;SDS011;48397;53.016;-2.260;2023-06-10T04:55:40;32.20;;;15.50;;
44670;SDS011;48397;53.016;-2.260;2023-06-10T04:58:08;33.63;;;16.63;;
44670;SDS011;48397;53.016;-2.260;2023-06-10T05:00:36;37.40;;;15.45;;
44670;SDS011;48397;53.016;-2.260;2023-06-10T05:03:04;34.40;;;14.88;;
44670;SDS011;48397;53.016;-2.260;2023-06-10T05:05:32;30.30;;;14.70;;
44670;SDS011;48397;53.016;-2.260;2023-06-10T05:08:00;32.42;;;16.45;;
44670;SDS011;48397;53.016;-2.260;2023-06-10T05:10:28;31.50;;;15.10;;
44670;SDS011;48397;53.016;-2.260;2023-06-10T05:12:58;39.03;;;17.10;;
44670;SDS011;48397;53.016;-2.260;2023-06-10T05:17:55;36.63;;;17.00;;
44670;SDS011;48397;53.016;-2.260;2023-06-10T05:20:25;33.63;;;15.88;;
44670;SDS011;48397;53.016;-2.260;2023-06-10T05:22:55;33.42;;;15.80;;
44670;SDS011;48397;53.016;-2.260;2023-06-10T05:25:23;36.42;;;16.50;;
44670;SDS011;48397;53.016;-2.260;2023-06-10T05:27:52;37.38;;;16.27;;
44670;SDS011;48397;53.016;-2.260;2023-06-10T05:30:20;33.25;;;15.07;;
44670;SDS011;48397;53.016;-2.260;2023-06-10T05:32:48;33.05;;;15.00;;
44670;SDS011;48397;53.016;-2.260;2023-06-10T05:35:16;35.65;;;16.35;;
44670;SDS011;48397;53.016;-2.260;2023-06-10T05:37:44;33.45;;;15.82;;
44670;SDS011;48397;53.016;-2.260;2023-06-10T05:40:12;33.22;;;15.13;;
44670;SDS011;48397;53.016;-2.260;2023-06-10T05:42:40;32.38;;;17.00;;
44670;SDS011;48397;53.016;-2.260;2023-06-10T05:47:36;29.33;;;15.60;;
44670;SDS011;48397;53.016;-2.260;2023-06-10T05:52:36;28.63;;;15.02;;
44670;SDS011;48397;53.016;-2.260;2023-06-10T05:55:04;30.38;;;15.40;;
44670;SDS011;48397;53.016;-2.260;2023-06-10T05:57:32;30.10;;;14.77;;
44670;SDS011;48397;53.016;-2.260;2023-06-10T05:59:59;29.50;;;13.70;;
44670;SDS011;48397;53.016;-2.260;2023-06-10T06:04:55;29.63;;;13.77;;
44670;SDS011;48397;53.016;-2.260;2023-06-10T06:07:23;28.98;;;14.10;;
44670;SDS011;48397;53.016;-2.260;2023-06-10T06:09:51;30.88;;;13.65;;
44670;SDS011;48397;53.016;-2.260;2023-06-10T06:12:19;24.55;;;13.13;;
44670;SDS011;48397;53.016;-2.260;2023-06-10T06:14:47;27.15;;;12.35;;
44670;SDS011;48397;53.016;-2.260;2023-06-10T06:17:16;26.48;;;13.13;;
44670;SDS011;48397;53.016;-2.260;2023-06-10T06:19:43;27.52;;;13.57;;
44670;SDS011;48397;53.016;-2.260;2023-06-10T06:22:12;25.05;;;12.73;;
44670;SDS011;48397;53.016;-2.260;2023-06-10T06:24:40;27.13;;;13.55;;
44670;SDS011;48397;53.016;-2.260;2023-06-10T06:27:08;26.90;;;13.55;;
44670;SDS011;48397;53.016;-2.260;2023-06-10T06:29:37;25.50;;;12.50;;
44670;SDS011;48397;53.016;-2.260;2023-06-10T06:32:05;23.95;;;12.25;;
44670;SDS011;48397;53.016;-2.260;2023-06-10T06:34:33;24.80;;;13.32;;
44670;SDS011;48397;53.016;-2.260;2023-06-10T06:37:02;29.52;;;13.48;;
44670;SDS011;48397;53.016;-2.260;2023-06-10T06:39:32;25.08;;;12.88;;
44670;SDS011;48397;53.016;-2.260;2023-06-10T06:42:00;26.58;;;13.90;;
44670;SDS011;48397;53.016;-2.260;2023-06-10T06:44:45;27.77;;;14.20;;
44670;SDS011;48397;53.016;-2.260;2023-06-10T06:47:14;26.60;;;12.90;;
44670;SDS011;48397;53.016;-2.260;2023-06-10T06:49:41;25.63;;;13.10;;
44670;SDS011;48397;53.016;-2.260;2023-06-10T06:52:09;25.35;;;13.70;;
44670;SDS011;48397;53.016;-2.260;2023-06-10T06:54:37;27.48;;;13.50;;
44670;SDS011;48397;53.016;-2.260;2023-06-10T06:57:04;27.60;;;13.32;;
44670;SDS011;48397;53.016;-2.260;2023-06-10T06:59:32;24.20;;;12.35;;
44670;SDS011;48397;53.016;-2.260;2023-06-10T07:02:00;25.27;;;13.13;;
44670;SDS011;48397;53.016;-2.260;2023-06-10T07:04:28;23.50;;;12.93;;
44670;SDS011;48397;53.016;-2.260;2023-06-10T07:06:57;25.30;;;13.00;;
44670;SDS011;48397;53.016;-2.260;2023-06-10T07:09:25;25.92;;;13.32;;
44670;SDS011;48397;53.016;-2.260;2023-06-10T07:16:48;25.30;;;13.35;;
44670;SDS011;48397;53.016;-2.260;2023-06-10T07:19:16;24.25;;;12.20;;
44670;SDS011;48397;53.016;-2.260;2023-06-10T07:21:44;26.23;;;12.50;;
44670;SDS011;48397;53.016;-2.260;2023-06-10T07:24:12;28.98;;;12.40;;
44670;SDS011;48397;53.016;-2.260;2023-06-10T07:26:40;23.60;;;12.93;;
44670;SDS011;48397;53.016;-2.260;2023-06-10T07:29:08;21.20;;;11.50;;
44670;SDS011;48397;53.016;-2.260;2023-06-10T07:34:03;22.13;;;11.75;;
44670;SDS011;48397;53.016;-2.260;2023-06-10T07:36:31;23.33;;;12.68;;
44670;SDS011;48397;53.016;-2.260;2023-06-10T07:38:59;23.35;;;12.70;;
44670;SDS011;48397;53.016;-2.260;2023-06-10T07:41:26;20.80;;;11.25;;
44670;SDS011;48397;53.016;-2.260;2023-06-10T07:43:54;20.67;;;12.13;;
44670;SDS011;48397;53.016;-2.260;2023-06-10T07:46:23;28.05;;;12.90;;
44670;SDS011;48397;53.016;-2.260;2023-06-10T07:48:51;20.25;;;12.25;;
44670;SDS011;48397;53.016;-2.260;2023-06-10T07:51:20;25.40;;;13.43;;
44670;SDS011;48397;53.016;-2.260;2023-06-10T07:53:48;26.25;;;12.05;;
44670;SDS011;48397;53.016;-2.260;2023-06-10T07:58:44;25.48;;;12.52;;
44670;SDS011;48397;53.016;-2.260;2023-06-10T08:03:39;22.35;;;11.95;;
44670;SDS011;48397;53.016;-2.260;2023-06-10T08:06:08;25.30;;;11.75;;
44670;SDS011;48397;53.016;-2.260;2023-06-10T08:08:35;21.33;;;11.55;;
44670;SDS011;48397;53.016;-2.260;2023-06-10T08:11:10;21.85;;;11.02;;
44670;SDS011;48397;53.016;-2.260;2023-06-10T08:13:38;24.33;;;11.82;;
44670;SDS011;48397;53.016;-2.260;2023-06-10T08:16:07;21.67;;;12.23;;
44670;SDS011;48397;53.016;-2.260;2023-06-10T08:18:34;17.83;;;10.48;;
44670;SDS011;48397;53.016;-2.260;2023-06-10T08:21:02;21.40;;;12.60;;
44670;SDS011;48397;53.016;-2.260;2023-06-10T08:23:30;26.17;;;12.55;;
44670;SDS011;48397;53.016;-2.260;2023-06-10T08:30:53;23.48;;;11.48;;
44670;SDS011;48397;53.016;-2.260;2023-06-10T08:33:23;23.90;;;12.85;;
44670;SDS011;48397;53.016;-2.260;2023-06-10T08:35:51;24.73;;;11.68;;
44670;SDS011;48397;53.016;-2.260;2023-06-10T08:40:47;22.95;;;12.43;;
44670;SDS011;48397;53.016;-2.260;2023-06-10T08:43:22;20.90;;;11.45;;
44670;SDS011;48397;53.016;-2.260;2023-06-10T08:45:53;22.92;;;11.75;;
44670;SDS011;48397;53.016;-2.260;2023-06-10T08:48:30;22.02;;;11.75;;
44670;SDS011;48397;53.016;-2.260;2023-06-10T08:51:03;22.55;;;11.82;;
44670;SDS011;48397;53.016;-2.260;2023-06-10T08:53:33;18.55;;;11.75;;
44670;SDS011;48397;53.016;-2.260;2023-06-10T08:56:04;22.02;;;11.55;;
44670;SDS011;48397;53.016;-2.260;2023-06-10T08:58:33;21.63;;;12.02;;
44670;SDS011;48397;53.016;-2.260;2023-06-10T09:01:08;22.17;;;12.50;;
44670;SDS011;48397;53.016;-2.260;2023-06-10T09:03:37;22.77;;;12.88;;
44670;SDS011;48397;53.016;-2.260;2023-06-10T09:06:05;27.38;;;12.63;;
44670;SDS011;48397;53.016;-2.260;2023-06-10T09:08:34;27.27;;;12.20;;
44670;SDS011;48397;53.016;-2.260;2023-06-10T09:11:32;28.20;;;13.65;;
44670;SDS011;48397;53.016;-2.260;2023-06-10T09:14:00;27.95;;;12.93;;
44670;SDS011;48397;53.016;-2.260;2023-06-10T09:16:28;27.70;;;13.07;;
44670;SDS011;48397;53.016;-2.260;2023-06-10T09:18:56;22.38;;;13.23;;
44670;SDS011;48397;53.016;-2.260;2023-06-10T09:21:24;20.48;;;11.82;;
44670;SDS011;48397;53.016;-2.260;2023-06-10T09:23:52;23.60;;;12.52;;
44670;SDS011;48397;53.016;-2.260;2023-06-10T09:26:21;23.63;;;13.60;;
44670;SDS011;48397;53.016;-2.260;2023-06-10T09:29:05;23.40;;;12.95;;
44670;SDS011;48397;53.016;-2.260;2023-06-10T09:31:35;22.90;;;13.15;;
44670;SDS011;48397;53.016;-2.260;2023-06-10T09:34:05;21.88;;;13.57;;
44670;SDS011;48397;53.016;-2.260;2023-06-10T09:36:37;23.13;;;13.38;;
44670;SDS011;48397;53.016;-2.260;2023-06-10T09:39:06;26.50;;;12.57;;
44670;SDS011;48397;53.016;-2.260;2023-06-10T09:41:45;21.83;;;12.95;;
44670;SDS011;48397;53.016;-2.260;2023-06-10T09:44:14;24.80;;;13.07;;
44670;SDS011;48397;53.016;-2.260;2023-06-10T09:46:47;22.17;;;12.70;;
44670;SDS011;48397;53.016;-2.260;2023-06-10T09:49:17;29.33;;;13.15;;
44670;SDS011;48397;53.016;-2.260;2023-06-10T09:51:53;25.38;;;13.30;;
44670;SDS011;48397;53.016;-2.260;2023-06-10T09:54:22;22.92;;;13.35;;
44670;SDS011;48397;53.016;-2.260;2023-06-10T09:56:53;23.98;;;13.45;;
44670;SDS011;48397;53.016;-2.260;2023-06-10T09:59:30;27.25;;;13.88;;
44670;SDS011;48397;53.016;-2.260;2023-06-10T10:02:20;25.55;;;14.00;;
44670;SDS011;48397;53.016;-2.260;2023-06-10T10:07:16;23.27;;;13.93;;
44670;SDS011;48397;53.016;-2.260;2023-06-10T10:09:44;25.23;;;13.43;;
44670;SDS011;48397;53.016;-2.260;2023-06-10T10:12:12;23.25;;;12.25;;
44670;SDS011;48397;53.016;-2.260;2023-06-10T10:14:48;21.83;;;12.35;;
44670;SDS011;48397;53.016;-2.260;2023-06-10T10:17:16;24.63;;;13.77;;
44670;SDS011;48397;53.016;-2.260;2023-06-10T10:19:53;22.70;;;13.05;;
44670;SDS011;48397;53.016;-2.260;2023-06-10T10:22:26;22.38;;;14.20;;
44670;SDS011;48397;53.016;-2.260;2023-06-10T10:24:59;22.85;;;14.23;;
44670;SDS011;48397;53.016;-2.260;2023-06-10T10:27:33;23.55;;;13.48;;
44670;SDS011;48397;53.016;-2.260;2023-06-10T10:30:03;22.92;;;13.57;;
44670;SDS011;48397;53.016;-2.260;2023-06-10T10:32:38;26.30;;;13.48;;
44670;SDS011;48397;53.016;-2.260;2023-06-10T10:35:17;19.83;;;13.70;;
44670;SDS011;48397;53.016;-2.260;2023-06-10T10:37:49;20.25;;;13.90;;
44670;SDS011;48397;53.016;-2.260;2023-06-10T10:40:22;21.35;;;13.82;;
44670;SDS011;48397;53.016;-2.260;2023-06-10T10:42:51;23.42;;;12.77;;
44670;SDS011;48397;53.016;-2.260;2023-06-10T10:45:19;24.75;;;13.05;;
44670;SDS011;48397;53.016;-2.260;2023-06-10T10:47:52;22.10;;;12.73;;
44670;SDS011;48397;53.016;-2.260;2023-06-10T10:50:20;23.30;;;13.73;;
44670;SDS011;48397;53.016;-2.260;2023-06-10T10:55:24;20.00;;;12.52;;
44670;SDS011;48397;53.016;-2.260;2023-06-10T10:57:58;23.80;;;13.77;;
44670;SDS011;48397;53.016;-2.260;2023-06-10T11:00:33;25.80;;;13.50;;
44670;SDS011;48397;53.016;-2.260;2023-06-10T11:03:06;22.17;;;13.65;;
44670;SDS011;48397;53.016;-2.260;2023-06-10T11:08:06;22.42;;;13.68;;
44670;SDS011;48397;53.016;-2.260;2023-06-10T11:10:37;19.08;;;12.88;;
44670;SDS011;48397;53.016;-2.260;2023-06-10T11:13:13;21.65;;;13.05;;
44670;SDS011;48397;53.016;-2.260;2023-06-10T11:15:46;21.00;;;13.23;;
44670;SDS011;48397;53.016;-2.260;2023-06-10T11:33:54;21.85;;;12.70;;
44670;SDS011;48397;53.016;-2.260;2023-06-10T11:36:24;17.75;;;10.63;;
44670;SDS011;48397;53.016;-2.260;2023-06-10T11:38:57;19.13;;;11.82;;
44670;SDS011;48397;53.016;-2.260;2023-06-10T11:41:29;16.98;;;11.10;;
44670;SDS011;48397;53.016;-2.260;2023-06-10T11:44:07;17.05;;;11.90;;
44670;SDS011;48397;53.016;-2.260;2023-06-10T11:46:42;16.90;;;12.18;;
44670;SDS011;48397;53.016;-2.260;2023-06-10T11:49:11;17.63;;;12.23;;
44670;SDS011;48397;53.016;-2.260;2023-06-10T11:51:39;17.98;;;11.80;;
44670;SDS011;48397;53.016;-2.260;2023-06-10T11:54:08;18.48;;;11.80;;
44670;SDS011;48397;53.016;-2.260;2023-06-10T11:56:38;19.90;;;12.88;;
44670;SDS011;48397;53.016;-2.260;2023-06-10T11:59:06;17.65;;;11.35;;
44670;SDS011;48397;53.016;-2.260;2023-06-10T12:01:42;17.65;;;12.15;;
44670;SDS011;48397;53.016;-2.260;2023-06-10T12:04:12;17.02;;;11.68;;
44670;SDS011;48397;53.016;-2.260;2023-06-10T12:06:49;21.30;;;11.40;;
44670;SDS011;48397;53.016;-2.260;2023-06-10T12:11:54;17.00;;;10.90;;
44670;SDS011;48397;53.016;-2.260;2023-06-10T12:17:21;16.10;;;10.82;;
44670;SDS011;48397;53.016;-2.260;2023-06-10T12:19:50;16.58;;;10.75;;
44670;SDS011;48397;53.016;-2.260;2023-06-10T12:22:18;13.82;;;9.82;;
44670;SDS011;48397;53.016;-2.260;2023-06-10T12:25:00;17.17;;;10.13;;
44670;SDS011;48397;53.016;-2.260;2023-06-10T12:27:32;16.63;;;10.90;;
44670;SDS011;48397;53.016;-2.260;2023-06-10T12:30:01;16.17;;;10.65;;
44670;SDS011;48397;53.016;-2.260;2023-06-10T12:32:36;13.52;;;9.85;;
44670;SDS011;48397;53.016;-2.260;2023-06-10T12:35:08;15.68;;;10.38;;
44670;SDS011;48397;53.016;-2.260;2023-06-10T12:37:39;16.42;;;10.73;;
44670;SDS011;48397;53.016;-2.260;2023-06-10T12:40:10;16.92;;;10.13;;
44670;SDS011;48397;53.016;-2.260;2023-06-10T12:42:38;13.93;;;10.35;;
44670;SDS011;48397;53.016;-2.260;2023-06-10T12:45:06;16.42;;;9.90;;
44670;SDS011;48397;53.016;-2.260;2023-06-10T12:47:37;14.52;;;10.15;;
44670;SDS011;48397;53.016;-2.260;2023-06-10T12:50:07;18.42;;;10.48;;
44670;SDS011;48397;53.016;-2.260;2023-06-10T12:52:35;16.95;;;10.52;;
44670;SDS011;48397;53.016;-2.260;2023-06-10T12:55:09;16.13;;;10.68;;
44670;SDS011;48397;53.016;-2.260;2023-06-10T12:57:37;17.85;;;10.40;;
44670;SDS011;48397;53.016;-2.260;2023-06-10T13:00:14;16.70;;;10.18;;
44670;SDS011;48397;53.016;-2.260;2023-06-10T13:02:42;19.10;;;10.57;;
44670;SDS011;48397;53.016;-2.260;2023-06-10T13:05:10;19.25;;;10.40;;
44670;SDS011;48397;53.016;-2.260;2023-06-10T13:07:43;16.42;;;10.52;;
44670;SDS011;48397;53.016;-2.260;2023-06-10T13:10:12;16.48;;;10.27;;
44670;SDS011;48397;53.016;-2.260;2023-06-10T13:12:43;17.92;;;10.15;;
44670;SDS011;48397;53.016;-2.260;2023-06-10T13:15:15;12.52;;;9.07;;
44670;SDS011;48397;53.016;-2.260;2023-06-10T13:17:43;13.27;;;9.65;;
44670;SDS011;48397;53.016;-2.260;2023-06-10T13:20:16;14.30;;;9.43;;
44670;SDS011;48397;53.016;-2.260;2023-06-10T13:22:44;12.38;;;9.32;;
44670;SDS011;48397;53.016;-2.260;2023-06-10T13:25:12;15.20;;;9.38;;
44670;SDS011;48397;53.016;-2.260;2023-06-10T13:27:40;13.90;;;9.43;;
44670;SDS011;48397;53.016;-2.260;2023-06-10T13:30:09;14.93;;;9.43;;
44670;SDS011;48397;53.016;-2.260;2023-06-10T13:32:38;13.32;;;9.10;;
44670;SDS011;48397;53.016;-2.260;2023-06-10T13:35:06;11.52;;;8.98;;
44670;SDS011;48397;53.016;-2.260;2023-06-10T13:37:35;14.85;;;9.38;;
44670;SDS011;48397;53.016;-2.260;2023-06-10T13:40:06;17.23;;;9.80;;
44670;SDS011;48397;53.016;-2.260;2023-06-10T13:42:35;16.15;;;9.80;;
44670;SDS011;48397;53.016;-2.260;2023-06-10T13:45:03;14.10;;;9.85;;
44670;SDS011;48397;53.016;-2.260;2023-06-10T13:47:33;18.23;;;9.35;;
44670;SDS011;48397;53.016;-2.260;2023-06-10T13:50:03;13.40;;;9.25;;
44670;SDS011;48397;53.016;-2.260;2023-06-10T13:52:31;12.35;;;9.52;;
44670;SDS011;48397;53.016;-2.260;2023-06-10T13:55:00;14.88;;;9.60;;
44670;SDS011;48397;53.016;-2.260;2023-06-10T13:57:29;14.35;;;9.15;;
44670;SDS011;48397;53.016;-2.260;2023-06-10T13:59:57;16.20;;;9.27;;
44670;SDS011;48397;53.016;-2.260;2023-06-10T14:02:25;14.55;;;9.32;;
44670;SDS011;48397;53.016;-2.260;2023-06-10T14:04:52;13.10;;;9.63;;
44670;SDS011;48397;53.016;-2.260;2023-06-10T14:07:20;13.15;;;9.27;;
44670;SDS011;48397;53.016;-2.260;2023-06-10T14:09:51;14.50;;;9.70;;
44670;SDS011;48397;53.016;-2.260;2023-06-10T14:12:18;12.50;;;9.60;;
44670;SDS011;48397;53.016;-2.260;2023-06-10T14:14:46;17.70;;;9.95;;
44670;SDS011;48397;53.016;-2.260;2023-06-10T14:17:14;16.90;;;10.20;;
44670;SDS011;48397;53.016;-2.260;2023-06-10T14:19:41;13.18;;;9.75;;
44670;SDS011;48397;53.016;-2.260;2023-06-10T14:22:09;12.60;;;9.65;;
44670;SDS011;48397;53.016;-2.260;2023-06-10T14:24:37;14.68;;;10.00;;
44670;SDS011;48397;53.016;-2.260;2023-06-10T14:27:05;16.65;;;10.02;;
44670;SDS011;48397;53.016;-2.260;2023-06-10T14:29:33;13.70;;;9.68;;
44670;SDS011;48397;53.016;-2.260;2023-06-10T14:32:03;13.80;;;9.98;;
44670;SDS011;48397;53.016;-2.260;2023-06-10T14:34:35;14.77;;;9.90;;
44670;SDS011;48397;53.016;-2.260;2023-06-10T14:37:03;13.00;;;9.90;;
44670;SDS011;48397;53.016;-2.260;2023-06-10T14:39:34;16.95;;;10.35;;
44670;SDS011;48397;53.016;-2.260;2023-06-10T14:42:02;14.13;;;10.15;;
44670;SDS011;48397;53.016;-2.260;2023-06-10T14:44:30;16.85;;;10.45;;
44670;SDS011;48397;53.016;-2.260;2023-06-10T14:47:00;15.55;;;9.70;;
44670;SDS011;48397;53.016;-2.260;2023-06-10T14:49:27;12.25;;;9.38;;
44670;SDS011;48397;53.016;-2.260;2023-06-10T14:51:55;13.10;;;9.68;;
44670;SDS011;48397;53.016;-2.260;2023-06-10T14:54:23;12.07;;;9.95;;
44670;SDS011;48397;53.016;-2.260;2023-06-10T14:56:51;13.82;;;9.98;;
44670;SDS011;48397;53.016;-2.260;2023-06-10T14:59:21;16.05;;;10.27;;
44670;SDS011;48397;53.016;-2.260;2023-06-10T15:01:49;13.65;;;10.32;;
44670;SDS011;48397;53.016;-2.260;2023-06-10T15:04:16;18.90;;;10.90;;
44670;SDS011;48397;53.016;-2.260;2023-06-10T15:06:49;13.32;;;9.90;;
44670;SDS011;48397;53.016;-2.260;2023-06-10T15:09:18;12.95;;;9.82;;
44670;SDS011;48397;53.016;-2.260;2023-06-10T15:11:45;13.75;;;10.38;;
44670;SDS011;48397;53.016;-2.260;2023-06-10T15:14:13;12.00;;;10.18;;
44670;SDS011;48397;53.016;-2.260;2023-06-10T15:16:44;13.88;;;10.40;;
44670;SDS011;48397;53.016;-2.260;2023-06-10T15:19:12;15.27;;;10.32;;
44670;SDS011;48397;53.016;-2.260;2023-06-10T15:21:40;12.20;;;10.38;;
44670;SDS011;48397;53.016;-2.260;2023-06-10T15:24:08;14.65;;;10.38;;
44670;SDS011;48397;53.016;-2.260;2023-06-10T15:26:40;13.65;;;10.15;;
44670;SDS011;48397;53.016;-2.260;2023-06-10T15:29:08;16.48;;;10.68;;
44670;SDS011;48397;53.016;-2.260;2023-06-10T15:31:36;12.32;;;10.43;;
44670;SDS011;48397;53.016;-2.260;2023-06-10T15:34:07;15.00;;;11.00;;
44670;SDS011;48397;53.016;-2.260;2023-06-10T15:36:40;14.38;;;10.50;;
44670;SDS011;48397;53.016;-2.260;2023-06-10T15:58:54;12.27;;;10.32;;
44670;SDS011;48397;53.016;-2.260;2023-06-10T16:22:12;11.90;;;9.88;;
44670;SDS011;48397;53.016;-2.260;2023-06-10T16:34:04;13.90;;;10.50;;
44670;SDS011;48397;53.016;-2.260;2023-06-10T16:37:14;14.77;;;11.23;;
44670;SDS011;48397;53.016;-2.260;2023-06-10T16:40:03;13.30;;;10.80;;